sensor_id;sensor_type;location;lat;lon;timestamp;P1;durP1;ratioP1;P2;durP2;ratioP2
64157;SDS011;50449;51.528;5.076;2024-01-27T00:01:04;53.38;;;50.78;;
64157;SDS011;50449;51.528;5.076;2024-01-27T00:03:30;53.35;;;50.88;;
64157;SDS011;50449;51.528;5.076;2024-01-27T00:05:55;55.35;;;52.75;;
64157;SDS011;50449;51.528;5.076;2024-01-27T00:08:21;59.63;;;56.72;;
64157;SDS011;50449;51.528;5.076;2024-01-27T00:10:46;56.78;;;54.17;;
64157;SDS011;50449;51.528;5.076;2024-01-27T00:13:12;58.40;;;55.60;;
64157;SDS011;50449;51.528;5.076;2024-01-27T00:15:38;56.72;;;54.10;;
64157;SDS011;50449;51.528;5.076;2024-01-27T00:18:03;53.22;;;50.67;;
64157;SDS011;50449;51.528;5.076;2024-01-27T00:20:29;59.70;;;56.88;;
64157;SDS011;50449;51.528;5.076;2024-01-27T00:22:54;52.70;;;50.28;;
64157;SDS011;50449;51.528;5.076;2024-01-27T00:25:20;60.03;;;57.03;;
64157;SDS011;50449;51.528;5.076;2024-01-27T00:27:45;57.35;;;54.55;;
64157;SDS011;50449;51.528;5.076;2024-01-27T00:30:11;54.05;;;51.33;;
64157;SDS011;50449;51.528;5.076;2024-01-27T00:32:37;57.22;;;54.53;;
64157;SDS011;50449;51.528;5.076;2024-01-27T00:35:02;56.45;;;53.75;;
64157;SDS011;50449;51.528;5.076;2024-01-27T00:37:28;55.58;;;52.97;;
64157;SDS011;50449;51.528;5.076;2024-01-27T00:39:54;54.00;;;51.35;;
64157;SDS011;50449;51.528;5.076;2024-01-27T00:42:19;54.30;;;51.58;;
64157;SDS011;50449;51.528;5.076;2024-01-27T00:44:49;58.22;;;55.47;;
64157;SDS011;50449;51.528;5.076;2024-01-27T00:47:15;58.92;;;56.08;;
64157;SDS011;50449;51.528;5.076;2024-01-27T00:49:41;57.17;;;54.17;;
64157;SDS011;50449;51.528;5.076;2024-01-27T00:52:06;53.63;;;50.97;;
64157;SDS011;50449;51.528;5.076;2024-01-27T00:54:31;52.45;;;50.00;;
64157;SDS011;50449;51.528;5.076;2024-01-27T00:56:57;55.03;;;52.40;;
64157;SDS011;50449;51.528;5.076;2024-01-27T00:59:22;55.78;;;53.08;;
64157;SDS011;50449;51.528;5.076;2024-01-27T01:01:47;54.97;;;52.42;;
64157;SDS011;50449;51.528;5.076;2024-01-27T01:04:13;57.05;;;53.88;;
64157;SDS011;50449;51.528;5.076;2024-01-27T01:06:39;49.95;;;47.58;;
64157;SDS011;50449;51.528;5.076;2024-01-27T01:09:05;54.08;;;50.72;;
64157;SDS011;50449;51.528;5.076;2024-01-27T01:11:30;57.53;;;54.72;;
64157;SDS011;50449;51.528;5.076;2024-01-27T01:13:56;50.25;;;47.85;;
64157;SDS011;50449;51.528;5.076;2024-01-27T01:16:21;58.53;;;54.92;;
64157;SDS011;50449;51.528;5.076;2024-01-27T01:18:47;53.97;;;50.90;;
64157;SDS011;50449;51.528;5.076;2024-01-27T01:21:12;54.78;;;52.17;;
64157;SDS011;50449;51.528;5.076;2024-01-27T01:23:38;53.35;;;50.90;;
64157;SDS011;50449;51.528;5.076;2024-01-27T01:26:03;52.58;;;50.08;;
64157;SDS011;50449;51.528;5.076;2024-01-27T01:28:29;54.13;;;51.42;;
64157;SDS011;50449;51.528;5.076;2024-01-27T01:30:54;52.70;;;50.22;;
64157;SDS011;50449;51.528;5.076;2024-01-27T01:33:21;53.90;;;51.10;;
64157;SDS011;50449;51.528;5.076;2024-01-27T01:35:46;50.47;;;48.03;;
64157;SDS011;50449;51.528;5.076;2024-01-27T01:38:11;48.42;;;45.97;;
64157;SDS011;50449;51.528;5.076;2024-01-27T01:40:37;56.67;;;53.70;;
64157;SDS011;50449;51.528;5.076;2024-01-27T01:43:02;56.80;;;54.15;;
64157;SDS011;50449;51.528;5.076;2024-01-27T01:45:29;56.67;;;53.97;;
64157;SDS011;50449;51.528;5.076;2024-01-27T01:47:54;48.75;;;46.50;;
64157;SDS011;50449;51.528;5.076;2024-01-27T01:50:20;51.63;;;49.00;;
64157;SDS011;50449;51.528;5.076;2024-01-27T01:52:47;54.42;;;51.88;;
64157;SDS011;50449;51.528;5.076;2024-01-27T01:55:14;53.67;;;51.17;;
64157;SDS011;50449;51.528;5.076;2024-01-27T01:57:41;52.13;;;49.50;;
64157;SDS011;50449;51.528;5.076;2024-01-27T02:00:08;52.17;;;49.72;;
64157;SDS011;50449;51.528;5.076;2024-01-27T02:02:34;56.58;;;53.85;;
64157;SDS011;50449;51.528;5.076;2024-01-27T02:04:59;52.80;;;50.38;;
64157;SDS011;50449;51.528;5.076;2024-01-27T02:07:25;52.33;;;49.72;;
64157;SDS011;50449;51.528;5.076;2024-01-27T02:09:50;56.00;;;52.90;;
64157;SDS011;50449;51.528;5.076;2024-01-27T02:12:16;51.63;;;49.00;;
64157;SDS011;50449;51.528;5.076;2024-01-27T02:14:41;52.35;;;49.92;;
64157;SDS011;50449;51.528;5.076;2024-01-27T02:17:07;53.60;;;51.08;;
64157;SDS011;50449;51.528;5.076;2024-01-27T02:19:32;54.50;;;51.90;;
64157;SDS011;50449;51.528;5.076;2024-01-27T02:21:57;58.20;;;55.38;;
64157;SDS011;50449;51.528;5.076;2024-01-27T02:24:23;56.42;;;53.75;;
64157;SDS011;50449;51.528;5.076;2024-01-27T02:26:48;52.95;;;50.45;;
64157;SDS011;50449;51.528;5.076;2024-01-27T02:29:14;58.63;;;55.92;;
64157;SDS011;50449;51.528;5.076;2024-01-27T02:31:39;53.45;;;50.85;;
64157;SDS011;50449;51.528;5.076;2024-01-27T02:34:04;53.08;;;50.65;;
64157;SDS011;50449;51.528;5.076;2024-01-27T02:36:30;55.72;;;53.03;;
64157;SDS011;50449;51.528;5.076;2024-01-27T02:38:55;51.45;;;48.95;;
64157;SDS011;50449;51.528;5.076;2024-01-27T02:41:20;50.13;;;47.70;;
64157;SDS011;50449;51.528;5.076;2024-01-27T02:43:46;52.20;;;49.45;;
64157;SDS011;50449;51.528;5.076;2024-01-27T02:46:11;52.75;;;50.28;;
64157;SDS011;50449;51.528;5.076;2024-01-27T02:48:41;51.38;;;48.78;;
64157;SDS011;50449;51.528;5.076;2024-01-27T02:51:07;49.33;;;47.00;;
64157;SDS011;50449;51.528;5.076;2024-01-27T02:53:33;58.25;;;54.55;;
64157;SDS011;50449;51.528;5.076;2024-01-27T02:55:58;47.85;;;45.60;;
64157;SDS011;50449;51.528;5.076;2024-01-27T02:58:23;51.60;;;49.17;;
64157;SDS011;50449;51.528;5.076;2024-01-27T03:00:49;51.40;;;48.92;;
64157;SDS011;50449;51.528;5.076;2024-01-27T03:03:14;52.00;;;49.55;;
64157;SDS011;50449;51.528;5.076;2024-01-27T03:05:40;55.90;;;53.20;;
64157;SDS011;50449;51.528;5.076;2024-01-27T03:08:06;51.95;;;49.50;;
64157;SDS011;50449;51.528;5.076;2024-01-27T03:10:31;50.33;;;47.75;;
64157;SDS011;50449;51.528;5.076;2024-01-27T03:12:57;50.42;;;48.08;;
64157;SDS011;50449;51.528;5.076;2024-01-27T03:15:22;51.00;;;48.63;;
64157;SDS011;50449;51.528;5.076;2024-01-27T03:17:48;48.90;;;46.60;;
64157;SDS011;50449;51.528;5.076;2024-01-27T03:20:13;53.33;;;50.88;;
64157;SDS011;50449;51.528;5.076;2024-01-27T03:22:38;53.13;;;50.53;;
64157;SDS011;50449;51.528;5.076;2024-01-27T03:25:05;53.58;;;50.95;;
64157;SDS011;50449;51.528;5.076;2024-01-27T03:27:32;51.72;;;49.28;;
64157;SDS011;50449;51.528;5.076;2024-01-27T03:29:59;52.33;;;49.75;;
64157;SDS011;50449;51.528;5.076;2024-01-27T03:32:26;49.13;;;46.60;;
64157;SDS011;50449;51.528;5.076;2024-01-27T03:34:51;57.03;;;54.38;;
64157;SDS011;50449;51.528;5.076;2024-01-27T03:37:16;51.92;;;49.45;;
64157;SDS011;50449;51.528;5.076;2024-01-27T03:39:42;52.22;;;49.42;;
64157;SDS011;50449;51.528;5.076;2024-01-27T03:42:08;45.42;;;43.33;;
64157;SDS011;50449;51.528;5.076;2024-01-27T03:44:33;53.50;;;50.75;;
64157;SDS011;50449;51.528;5.076;2024-01-27T03:46:58;50.50;;;48.15;;
64157;SDS011;50449;51.528;5.076;2024-01-27T03:49:24;52.40;;;49.92;;
64157;SDS011;50449;51.528;5.076;2024-01-27T03:51:49;48.63;;;46.22;;
64157;SDS011;50449;51.528;5.076;2024-01-27T03:54:15;49.80;;;47.33;;
64157;SDS011;50449;51.528;5.076;2024-01-27T03:56:41;47.70;;;45.20;;
64157;SDS011;50449;51.528;5.076;2024-01-27T03:59:06;55.92;;;53.22;;
64157;SDS011;50449;51.528;5.076;2024-01-27T04:01:34;52.97;;;49.35;;
64157;SDS011;50449;51.528;5.076;2024-01-27T04:04:00;51.60;;;48.75;;
64157;SDS011;50449;51.528;5.076;2024-01-27T04:06:25;50.35;;;47.85;;
64157;SDS011;50449;51.528;5.076;2024-01-27T04:08:51;50.92;;;48.42;;
64157;SDS011;50449;51.528;5.076;2024-01-27T04:11:20;48.70;;;46.38;;
64157;SDS011;50449;51.528;5.076;2024-01-27T04:13:49;51.78;;;49.17;;
64157;SDS011;50449;51.528;5.076;2024-01-27T04:16:17;50.25;;;47.90;;
64157;SDS011;50449;51.528;5.076;2024-01-27T04:18:43;53.03;;;50.42;;
64157;SDS011;50449;51.528;5.076;2024-01-27T04:21:08;49.03;;;46.72;;
64157;SDS011;50449;51.528;5.076;2024-01-27T04:23:34;48.88;;;46.55;;
64157;SDS011;50449;51.528;5.076;2024-01-27T04:25:59;48.40;;;46.13;;
64157;SDS011;50449;51.528;5.076;2024-01-27T04:28:25;50.42;;;48.03;;
64157;SDS011;50449;51.528;5.076;2024-01-27T04:30:50;45.50;;;43.20;;
64157;SDS011;50449;51.528;5.076;2024-01-27T04:33:17;47.55;;;45.35;;
64157;SDS011;50449;51.528;5.076;2024-01-27T04:35:42;53.78;;;51.17;;
64157;SDS011;50449;51.528;5.076;2024-01-27T04:38:08;49.65;;;47.25;;
64157;SDS011;50449;51.528;5.076;2024-01-27T04:40:34;45.92;;;43.72;;
64157;SDS011;50449;51.528;5.076;2024-01-27T04:43:00;50.45;;;48.05;;
64157;SDS011;50449;51.528;5.076;2024-01-27T04:45:26;52.50;;;49.78;;
64157;SDS011;50449;51.528;5.076;2024-01-27T04:47:52;50.90;;;48.40;;
64157;SDS011;50449;51.528;5.076;2024-01-27T04:50:18;49.53;;;47.22;;
64157;SDS011;50449;51.528;5.076;2024-01-27T04:52:44;49.15;;;46.72;;
64157;SDS011;50449;51.528;5.076;2024-01-27T04:55:10;49.33;;;47.08;;
64157;SDS011;50449;51.528;5.076;2024-01-27T04:57:35;46.53;;;44.33;;
64157;SDS011;50449;51.528;5.076;2024-01-27T05:00:01;50.20;;;47.85;;
64157;SDS011;50449;51.528;5.076;2024-01-27T05:02:27;48.15;;;45.88;;
64157;SDS011;50449;51.528;5.076;2024-01-27T05:04:52;52.42;;;49.78;;
64157;SDS011;50449;51.528;5.076;2024-01-27T05:07:17;50.20;;;47.70;;
64157;SDS011;50449;51.528;5.076;2024-01-27T05:09:43;47.42;;;45.13;;
64157;SDS011;50449;51.528;5.076;2024-01-27T05:12:08;49.00;;;46.72;;
64157;SDS011;50449;51.528;5.076;2024-01-27T05:14:34;44.40;;;42.30;;
64157;SDS011;50449;51.528;5.076;2024-01-27T05:16:59;46.80;;;44.55;;
64157;SDS011;50449;51.528;5.076;2024-01-27T05:19:24;56.08;;;53.15;;
64157;SDS011;50449;51.528;5.076;2024-01-27T05:21:50;49.45;;;46.25;;
64157;SDS011;50449;51.528;5.076;2024-01-27T05:24:15;51.30;;;48.88;;
64157;SDS011;50449;51.528;5.076;2024-01-27T05:26:41;49.33;;;46.78;;
64157;SDS011;50449;51.528;5.076;2024-01-27T05:29:06;51.10;;;48.60;;
64157;SDS011;50449;51.528;5.076;2024-01-27T05:31:32;48.33;;;46.03;;
64157;SDS011;50449;51.528;5.076;2024-01-27T05:33:58;54.53;;;51.88;;
64157;SDS011;50449;51.528;5.076;2024-01-27T05:36:24;46.78;;;44.35;;
64157;SDS011;50449;51.528;5.076;2024-01-27T05:38:49;52.55;;;49.95;;
64157;SDS011;50449;51.528;5.076;2024-01-27T05:41:15;49.00;;;46.08;;
64157;SDS011;50449;51.528;5.076;2024-01-27T05:43:40;49.17;;;46.90;;
64157;SDS011;50449;51.528;5.076;2024-01-27T05:46:08;45.22;;;43.10;;
64157;SDS011;50449;51.528;5.076;2024-01-27T05:48:34;47.20;;;44.97;;
64157;SDS011;50449;51.528;5.076;2024-01-27T05:51:00;47.67;;;45.28;;
64157;SDS011;50449;51.528;5.076;2024-01-27T05:53:26;42.55;;;40.53;;
64157;SDS011;50449;51.528;5.076;2024-01-27T05:55:52;49.17;;;46.70;;
64157;SDS011;50449;51.528;5.076;2024-01-27T05:58:27;45.83;;;43.63;;
64157;SDS011;50449;51.528;5.076;2024-01-27T06:00:52;49.75;;;47.25;;
64157;SDS011;50449;51.528;5.076;2024-01-27T06:03:18;47.55;;;45.35;;
64157;SDS011;50449;51.528;5.076;2024-01-27T06:05:43;46.67;;;44.47;;
64157;SDS011;50449;51.528;5.076;2024-01-27T06:08:09;43.33;;;41.17;;
64157;SDS011;50449;51.528;5.076;2024-01-27T06:10:34;42.15;;;40.15;;
64157;SDS011;50449;51.528;5.076;2024-01-27T06:13:03;47.95;;;45.63;;
64157;SDS011;50449;51.528;5.076;2024-01-27T06:15:29;49.45;;;46.72;;
64157;SDS011;50449;51.528;5.076;2024-01-27T06:17:55;44.63;;;42.42;;
64157;SDS011;50449;51.528;5.076;2024-01-27T06:20:20;49.00;;;46.70;;
64157;SDS011;50449;51.528;5.076;2024-01-27T06:22:45;47.55;;;45.30;;
64157;SDS011;50449;51.528;5.076;2024-01-27T06:25:11;47.70;;;45.42;;
64157;SDS011;50449;51.528;5.076;2024-01-27T06:27:37;45.20;;;43.10;;
64157;SDS011;50449;51.528;5.076;2024-01-27T06:30:08;48.05;;;45.83;;
64157;SDS011;50449;51.528;5.076;2024-01-27T06:32:35;47.08;;;44.88;;
64157;SDS011;50449;51.528;5.076;2024-01-27T06:35:00;49.33;;;46.80;;
64157;SDS011;50449;51.528;5.076;2024-01-27T06:37:26;45.45;;;43.28;;
64157;SDS011;50449;51.528;5.076;2024-01-27T06:39:51;44.85;;;42.72;;
64157;SDS011;50449;51.528;5.076;2024-01-27T06:42:17;46.15;;;43.95;;
64157;SDS011;50449;51.528;5.076;2024-01-27T06:44:42;47.53;;;45.22;;
64157;SDS011;50449;51.528;5.076;2024-01-27T06:47:07;50.13;;;47.65;;
64157;SDS011;50449;51.528;5.076;2024-01-27T06:49:33;53.42;;;50.47;;
64157;SDS011;50449;51.528;5.076;2024-01-27T06:51:58;48.30;;;45.85;;
64157;SDS011;50449;51.528;5.076;2024-01-27T06:54:25;46.47;;;44.08;;
64157;SDS011;50449;51.528;5.076;2024-01-27T06:56:50;47.10;;;44.80;;
64157;SDS011;50449;51.528;5.076;2024-01-27T06:59:16;47.58;;;45.38;;
64157;SDS011;50449;51.528;5.076;2024-01-27T07:01:47;44.88;;;42.80;;
64157;SDS011;50449;51.528;5.076;2024-01-27T07:04:14;49.33;;;46.97;;
64157;SDS011;50449;51.528;5.076;2024-01-27T07:06:40;47.78;;;45.47;;
64157;SDS011;50449;51.528;5.076;2024-01-27T07:09:05;43.35;;;40.85;;
64157;SDS011;50449;51.528;5.076;2024-01-27T07:11:32;47.78;;;45.25;;
64157;SDS011;50449;51.528;5.076;2024-01-27T07:13:58;45.17;;;42.92;;
64157;SDS011;50449;51.528;5.076;2024-01-27T07:16:23;48.55;;;46.15;;
64157;SDS011;50449;51.528;5.076;2024-01-27T07:18:50;48.50;;;46.20;;
64157;SDS011;50449;51.528;5.076;2024-01-27T07:21:16;44.55;;;42.45;;
64157;SDS011;50449;51.528;5.076;2024-01-27T07:23:42;45.15;;;43.03;;
64157;SDS011;50449;51.528;5.076;2024-01-27T07:26:11;49.05;;;46.63;;
64157;SDS011;50449;51.528;5.076;2024-01-27T07:28:37;46.40;;;44.25;;
64157;SDS011;50449;51.528;5.076;2024-01-27T07:31:03;47.08;;;44.78;;
64157;SDS011;50449;51.528;5.076;2024-01-27T07:33:29;43.00;;;41.00;;
64157;SDS011;50449;51.528;5.076;2024-01-27T07:35:54;44.65;;;42.55;;
64157;SDS011;50449;51.528;5.076;2024-01-27T07:38:20;47.03;;;44.83;;
64157;SDS011;50449;51.528;5.076;2024-01-27T07:40:45;49.58;;;47.28;;
64157;SDS011;50449;51.528;5.076;2024-01-27T07:43:11;45.08;;;42.78;;
64157;SDS011;50449;51.528;5.076;2024-01-27T07:45:36;44.08;;;41.97;;
64157;SDS011;50449;51.528;5.076;2024-01-27T07:48:01;46.65;;;44.35;;
64157;SDS011;50449;51.528;5.076;2024-01-27T07:50:28;45.03;;;42.85;;
64157;SDS011;50449;51.528;5.076;2024-01-27T07:52:53;48.50;;;45.92;;
64157;SDS011;50449;51.528;5.076;2024-01-27T07:55:18;46.80;;;44.60;;
64157;SDS011;50449;51.528;5.076;2024-01-27T07:57:44;46.08;;;43.88;;
64157;SDS011;50449;51.528;5.076;2024-01-27T08:00:09;51.10;;;48.50;;
64157;SDS011;50449;51.528;5.076;2024-01-27T08:02:35;41.88;;;39.80;;
64157;SDS011;50449;51.528;5.076;2024-01-27T08:05:00;47.22;;;44.97;;
64157;SDS011;50449;51.528;5.076;2024-01-27T08:07:28;46.45;;;44.15;;
64157;SDS011;50449;51.528;5.076;2024-01-27T08:09:54;45.80;;;43.63;;
64157;SDS011;50449;51.528;5.076;2024-01-27T08:12:19;45.25;;;43.15;;
64157;SDS011;50449;51.528;5.076;2024-01-27T08:14:44;42.55;;;40.42;;
64157;SDS011;50449;51.528;5.076;2024-01-27T08:17:10;48.33;;;45.85;;
64157;SDS011;50449;51.528;5.076;2024-01-27T08:19:35;43.22;;;41.15;;
64157;SDS011;50449;51.528;5.076;2024-01-27T08:22:01;46.28;;;44.08;;
64157;SDS011;50449;51.528;5.076;2024-01-27T08:24:26;46.10;;;43.90;;
64157;SDS011;50449;51.528;5.076;2024-01-27T08:26:51;45.17;;;43.08;;
64157;SDS011;50449;51.528;5.076;2024-01-27T08:29:17;43.25;;;41.03;;
64157;SDS011;50449;51.528;5.076;2024-01-27T08:31:42;47.35;;;44.78;;
64157;SDS011;50449;51.528;5.076;2024-01-27T08:34:08;49.53;;;46.95;;
64157;SDS011;50449;51.528;5.076;2024-01-27T08:36:34;46.60;;;44.40;;
64157;SDS011;50449;51.528;5.076;2024-01-27T08:38:59;45.92;;;43.22;;
64157;SDS011;50449;51.528;5.076;2024-01-27T08:41:25;48.38;;;46.08;;
64157;SDS011;50449;51.528;5.076;2024-01-27T08:43:51;45.10;;;43.00;;
64157;SDS011;50449;51.528;5.076;2024-01-27T08:46:16;51.22;;;48.63;;
64157;SDS011;50449;51.528;5.076;2024-01-27T08:48:44;51.53;;;48.97;;
64157;SDS011;50449;51.528;5.076;2024-01-27T08:51:10;46.08;;;43.67;;
64157;SDS011;50449;51.528;5.076;2024-01-27T08:53:36;41.72;;;39.72;;
64157;SDS011;50449;51.528;5.076;2024-01-27T08:56:02;41.15;;;39.13;;
64157;SDS011;50449;51.528;5.076;2024-01-27T08:58:28;47.10;;;44.78;;
64157;SDS011;50449;51.528;5.076;2024-01-27T09:00:53;47.95;;;45.72;;
64157;SDS011;50449;51.528;5.076;2024-01-27T09:03:18;47.50;;;45.10;;
64157;SDS011;50449;51.528;5.076;2024-01-27T09:05:46;46.97;;;44.58;;
64157;SDS011;50449;51.528;5.076;2024-01-27T09:08:11;47.88;;;45.42;;
64157;SDS011;50449;51.528;5.076;2024-01-27T09:10:37;46.25;;;44.13;;
64157;SDS011;50449;51.528;5.076;2024-01-27T09:13:02;45.75;;;43.60;;
64157;SDS011;50449;51.528;5.076;2024-01-27T09:15:28;43.42;;;41.28;;
64157;SDS011;50449;51.528;5.076;2024-01-27T09:17:53;50.55;;;48.13;;
64157;SDS011;50449;51.528;5.076;2024-01-27T09:20:19;45.20;;;42.88;;
64157;SDS011;50449;51.528;5.076;2024-01-27T09:22:45;46.78;;;44.33;;
64157;SDS011;50449;51.528;5.076;2024-01-27T09:25:12;43.20;;;41.05;;
64157;SDS011;50449;51.528;5.076;2024-01-27T09:27:38;44.13;;;41.60;;
64157;SDS011;50449;51.528;5.076;2024-01-27T09:30:04;42.42;;;40.38;;
64157;SDS011;50449;51.528;5.076;2024-01-27T09:32:30;42.63;;;40.53;;
64157;SDS011;50449;51.528;5.076;2024-01-27T09:34:55;45.55;;;43.30;;
64157;SDS011;50449;51.528;5.076;2024-01-27T09:37:21;44.20;;;41.80;;
64157;SDS011;50449;51.528;5.076;2024-01-27T09:39:46;43.20;;;40.35;;
64157;SDS011;50449;51.528;5.076;2024-01-27T09:42:12;45.13;;;42.45;;
64157;SDS011;50449;51.528;5.076;2024-01-27T09:44:41;49.28;;;46.97;;
64157;SDS011;50449;51.528;5.076;2024-01-27T09:47:12;46.03;;;43.60;;
64157;SDS011;50449;51.528;5.076;2024-01-27T09:49:39;40.83;;;38.80;;
64157;SDS011;50449;51.528;5.076;2024-01-27T09:52:06;47.65;;;44.90;;
64157;SDS011;50449;51.528;5.076;2024-01-27T09:54:32;47.28;;;44.53;;
64157;SDS011;50449;51.528;5.076;2024-01-27T09:56:57;49.50;;;46.90;;
64157;SDS011;50449;51.528;5.076;2024-01-27T09:59:23;45.78;;;42.47;;
64157;SDS011;50449;51.528;5.076;2024-01-27T10:01:50;43.10;;;40.75;;
64157;SDS011;50449;51.528;5.076;2024-01-27T10:04:19;45.25;;;42.72;;
64157;SDS011;50449;51.528;5.076;2024-01-27T10:06:48;42.28;;;40.05;;
64157;SDS011;50449;51.528;5.076;2024-01-27T10:09:15;43.78;;;41.42;;
64157;SDS011;50449;51.528;5.076;2024-01-27T10:11:42;50.15;;;47.38;;
64157;SDS011;50449;51.528;5.076;2024-01-27T10:14:11;48.17;;;45.58;;
64157;SDS011;50449;51.528;5.076;2024-01-27T10:16:43;43.30;;;41.22;;
64157;SDS011;50449;51.528;5.076;2024-01-27T10:19:16;46.33;;;43.75;;
64157;SDS011;50449;51.528;5.076;2024-01-27T10:21:45;51.33;;;48.42;;
64157;SDS011;50449;51.528;5.076;2024-01-27T10:24:11;42.80;;;40.70;;
64157;SDS011;50449;51.528;5.076;2024-01-27T10:26:37;47.10;;;43.83;;
64157;SDS011;50449;51.528;5.076;2024-01-27T10:29:02;44.85;;;42.47;;
64157;SDS011;50449;51.528;5.076;2024-01-27T10:31:28;49.22;;;46.50;;
64157;SDS011;50449;51.528;5.076;2024-01-27T10:33:55;48.08;;;45.40;;
64157;SDS011;50449;51.528;5.076;2024-01-27T10:36:22;47.20;;;44.60;;
64157;SDS011;50449;51.528;5.076;2024-01-27T10:38:48;42.28;;;40.08;;
64157;SDS011;50449;51.528;5.076;2024-01-27T10:41:15;43.28;;;41.17;;
64157;SDS011;50449;51.528;5.076;2024-01-27T10:43:50;50.58;;;47.88;;
64157;SDS011;50449;51.528;5.076;2024-01-27T10:46:18;45.55;;;43.25;;
64157;SDS011;50449;51.528;5.076;2024-01-27T10:48:46;46.50;;;44.13;;
64157;SDS011;50449;51.528;5.076;2024-01-27T10:51:16;45.85;;;43.15;;
64157;SDS011;50449;51.528;5.076;2024-01-27T10:53:54;46.05;;;43.42;;
64157;SDS011;50449;51.528;5.076;2024-01-27T10:56:27;48.15;;;45.08;;
64157;SDS011;50449;51.528;5.076;2024-01-27T10:58:56;47.90;;;44.90;;
64157;SDS011;50449;51.528;5.076;2024-01-27T11:01:23;51.13;;;48.15;;
64157;SDS011;50449;51.528;5.076;2024-01-27T11:03:49;46.63;;;43.97;;
64157;SDS011;50449;51.528;5.076;2024-01-27T11:06:19;49.60;;;46.38;;
64157;SDS011;50449;51.528;5.076;2024-01-27T11:08:47;46.92;;;43.08;;
64157;SDS011;50449;51.528;5.076;2024-01-27T11:11:14;48.10;;;44.92;;
64157;SDS011;50449;51.528;5.076;2024-01-27T11:13:40;43.28;;;40.67;;
64157;SDS011;50449;51.528;5.076;2024-01-27T11:16:06;46.33;;;43.83;;
64157;SDS011;50449;51.528;5.076;2024-01-27T11:18:42;47.83;;;45.35;;
64157;SDS011;50449;51.528;5.076;2024-01-27T11:21:08;44.50;;;42.20;;
64157;SDS011;50449;51.528;5.076;2024-01-27T11:23:39;47.67;;;45.28;;
64157;SDS011;50449;51.528;5.076;2024-01-27T11:26:08;48.83;;;46.38;;
64157;SDS011;50449;51.528;5.076;2024-01-27T11:28:34;45.70;;;43.10;;
64157;SDS011;50449;51.528;5.076;2024-01-27T11:31:07;43.85;;;41.70;;
64157;SDS011;50449;51.528;5.076;2024-01-27T11:33:33;47.55;;;45.08;;
64157;SDS011;50449;51.528;5.076;2024-01-27T11:36:06;46.85;;;44.25;;
64157;SDS011;50449;51.528;5.076;2024-01-27T11:38:32;48.95;;;46.15;;
64157;SDS011;50449;51.528;5.076;2024-01-27T11:41:01;47.70;;;45.20;;
64157;SDS011;50449;51.528;5.076;2024-01-27T11:43:27;49.45;;;46.17;;
64157;SDS011;50449;51.528;5.076;2024-01-27T11:45:59;44.53;;;42.33;;
64157;SDS011;50449;51.528;5.076;2024-01-27T11:48:25;50.35;;;47.60;;
64157;SDS011;50449;51.528;5.076;2024-01-27T11:53:45;48.00;;;44.95;;
64157;SDS011;50449;51.528;5.076;2024-01-27T11:56:11;44.97;;;42.63;;
64157;SDS011;50449;51.528;5.076;2024-01-27T11:58:45;47.40;;;44.70;;
64157;SDS011;50449;51.528;5.076;2024-01-27T12:01:11;44.85;;;42.13;;
64157;SDS011;50449;51.528;5.076;2024-01-27T12:03:36;54.67;;;50.45;;
64157;SDS011;50449;51.528;5.076;2024-01-27T12:06:02;41.13;;;39.08;;
64157;SDS011;50449;51.528;5.076;2024-01-27T12:08:28;43.47;;;41.20;;
64157;SDS011;50449;51.528;5.076;2024-01-27T12:10:53;44.63;;;42.22;;
64157;SDS011;50449;51.528;5.076;2024-01-27T12:13:18;48.90;;;45.90;;
64157;SDS011;50449;51.528;5.076;2024-01-27T12:15:44;46.05;;;43.75;;
64157;SDS011;50449;51.528;5.076;2024-01-27T12:18:09;45.25;;;43.00;;
64157;SDS011;50449;51.528;5.076;2024-01-27T12:20:35;43.45;;;41.13;;
64157;SDS011;50449;51.528;5.076;2024-01-27T12:23:07;51.70;;;46.97;;
64157;SDS011;50449;51.528;5.076;2024-01-27T12:25:32;44.47;;;41.47;;
64157;SDS011;50449;51.528;5.076;2024-01-27T12:28:02;46.85;;;44.45;;
64157;SDS011;50449;51.528;5.076;2024-01-27T12:30:28;45.97;;;43.70;;
64157;SDS011;50449;51.528;5.076;2024-01-27T12:32:53;49.28;;;46.80;;
64157;SDS011;50449;51.528;5.076;2024-01-27T12:35:19;45.55;;;42.88;;
64157;SDS011;50449;51.528;5.076;2024-01-27T12:37:44;47.95;;;45.45;;
64157;SDS011;50449;51.528;5.076;2024-01-27T12:42:45;47.28;;;43.97;;
64157;SDS011;50449;51.528;5.076;2024-01-27T12:45:10;50.95;;;47.70;;
64157;SDS011;50449;51.528;5.076;2024-01-27T12:47:36;45.38;;;43.15;;
64157;SDS011;50449;51.528;5.076;2024-01-27T12:50:01;46.72;;;43.35;;
64157;SDS011;50449;51.528;5.076;2024-01-27T12:52:27;48.05;;;45.55;;
64157;SDS011;50449;51.528;5.076;2024-01-27T12:54:52;51.00;;;47.35;;
64157;SDS011;50449;51.528;5.076;2024-01-27T12:57:18;44.72;;;41.92;;
64157;SDS011;50449;51.528;5.076;2024-01-27T12:59:45;47.33;;;44.58;;
64157;SDS011;50449;51.528;5.076;2024-01-27T13:02:10;45.28;;;43.08;;
64157;SDS011;50449;51.528;5.076;2024-01-27T13:04:35;46.35;;;43.70;;
64157;SDS011;50449;51.528;5.076;2024-01-27T13:07:01;46.30;;;43.90;;
64157;SDS011;50449;51.528;5.076;2024-01-27T13:09:26;46.88;;;44.42;;
64157;SDS011;50449;51.528;5.076;2024-01-27T13:11:52;48.00;;;44.75;;
64157;SDS011;50449;51.528;5.076;2024-01-27T13:14:17;45.17;;;42.63;;
64157;SDS011;50449;51.528;5.076;2024-01-27T13:16:45;50.17;;;47.05;;
64157;SDS011;50449;51.528;5.076;2024-01-27T13:19:10;44.28;;;41.75;;
64157;SDS011;50449;51.528;5.076;2024-01-27T13:21:36;52.40;;;49.13;;
64157;SDS011;50449;51.528;5.076;2024-01-27T13:24:01;46.05;;;43.65;;
64157;SDS011;50449;51.528;5.076;2024-01-27T13:26:27;43.95;;;41.45;;
64157;SDS011;50449;51.528;5.076;2024-01-27T13:28:53;46.58;;;44.30;;
64157;SDS011;50449;51.528;5.076;2024-01-27T13:31:19;47.63;;;43.95;;
64157;SDS011;50449;51.528;5.076;2024-01-27T13:33:44;47.40;;;43.63;;
64157;SDS011;50449;51.528;5.076;2024-01-27T13:36:09;48.47;;;45.03;;
64157;SDS011;50449;51.528;5.076;2024-01-27T13:38:35;47.25;;;44.65;;
64157;SDS011;50449;51.528;5.076;2024-01-27T13:41:00;49.05;;;45.42;;
64157;SDS011;50449;51.528;5.076;2024-01-27T13:43:26;48.95;;;45.85;;
64157;SDS011;50449;51.528;5.076;2024-01-27T13:45:52;47.15;;;44.13;;
64157;SDS011;50449;51.528;5.076;2024-01-27T13:48:19;47.80;;;44.47;;
64157;SDS011;50449;51.528;5.076;2024-01-27T13:50:45;49.47;;;46.72;;
64157;SDS011;50449;51.528;5.076;2024-01-27T13:53:11;51.40;;;47.88;;
64157;SDS011;50449;51.528;5.076;2024-01-27T13:55:36;46.90;;;43.95;;
64157;SDS011;50449;51.528;5.076;2024-01-27T13:58:02;43.95;;;41.83;;
64157;SDS011;50449;51.528;5.076;2024-01-27T14:00:28;46.70;;;44.08;;
64157;SDS011;50449;51.528;5.076;2024-01-27T14:02:54;49.65;;;46.65;;
64157;SDS011;50449;51.528;5.076;2024-01-27T14:05:19;52.15;;;48.78;;
64157;SDS011;50449;51.528;5.076;2024-01-27T14:07:45;51.92;;;48.75;;
64157;SDS011;50449;51.528;5.076;2024-01-27T14:10:10;48.75;;;45.78;;
64157;SDS011;50449;51.528;5.076;2024-01-27T14:12:36;49.13;;;46.08;;
64157;SDS011;50449;51.528;5.076;2024-01-27T14:15:02;47.65;;;44.15;;
64157;SDS011;50449;51.528;5.076;2024-01-27T14:17:29;50.17;;;46.70;;
64157;SDS011;50449;51.528;5.076;2024-01-27T14:19:55;47.75;;;44.78;;